createdAt,value
2022-08-08T00:00:52.784Z,101666.03
2022-08-08T00:02:59.917Z,101675.78
2022-08-08T00:05:44.016Z,101672.28
2022-08-08T00:08:49.517Z,101667.91
2022-08-08T00:11:46.804Z,101665.28
2022-08-08T00:14:48.455Z,101663.56
2022-08-08T00:18:02.735Z,101656.50
2022-08-08T00:20:56.896Z,101659.19
2022-08-08T00:23:42.527Z,101669.78
2022-08-08T00:26:13.032Z,101669.81
2022-08-08T00:28:47.319Z,101665.44
2022-08-08T00:32:20.107Z,101666.34
2022-08-08T00:34:52.370Z,101668.13
2022-08-08T00:37:48.100Z,101659.28
2022-08-08T00:41:10.512Z,101658.44
2022-08-08T00:43:40.781Z,101663.78
2022-08-08T00:46:25.258Z,101657.63
2022-08-08T00:49:36.996Z,101663.84
2022-08-08T00:52:38.944Z,101669.16
2022-08-08T00:55:52.629Z,101666.50
2022-08-08T00:58:32.581Z,101660.38
2022-08-08T01:01:37.503Z,101664.81
2022-08-08T01:04:20.530Z,101658.63
2022-08-08T01:07:34.677Z,101663.94
2022-08-08T01:10:35.546Z,101656.91
2022-08-08T01:13:06.507Z,101656.03
2022-08-08T01:15:55.186Z,101664.88
2022-08-08T01:19:13.600Z,101664.84
2022-08-08T01:22:23.528Z,101662.22
2022-08-08T01:25:18.460Z,101668.38
2022-08-08T01:28:30.479Z,101667.53
2022-08-08T01:32:05.566Z,101665.78
2022-08-08T01:34:45.399Z,101662.25
2022-08-08T01:37:59.165Z,101664.88
2022-08-08T01:40:38.120Z,101657.84
2022-08-08T01:43:09.897Z,101657.88
2022-08-08T01:46:01.122Z,101658.72
2022-08-08T01:48:53.537Z,101671.09
2022-08-08T01:52:41.159Z,101660.50
2022-08-08T01:55:27.165Z,101662.28
2022-08-08T01:58:11.329Z,101663.16
2022-08-08T02:00:40.701Z,101661.41
2022-08-08T02:03:55.380Z,101664.94
2022-08-08T02:06:52.744Z,101659.69
2022-08-08T02:10:03.271Z,101664.03
2022-08-08T02:12:37.567Z,101664.06
2022-08-08T02:15:12.450Z,101650.00
2022-08-08T02:17:57.100Z,101657.91
2022-08-08T02:21:01.226Z,101657.03
2022-08-08T02:23:35.121Z,101660.53
2022-08-08T02:26:10.163Z,101657.00
2022-08-08T02:28:56.297Z,101657.03
2022-08-08T02:31:59.052Z,101662.28
2022-08-08T02:35:08.254Z,101657.88
2022-08-08T02:38:05.702Z,101664.06
2022-08-08T02:41:02.798Z,101661.41
2022-08-08T02:44:42.873Z,101665.81
2022-08-08T02:47:07.997Z,101671.97
2022-08-08T02:49:50.936Z,101670.19
2022-08-08T02:52:34.862Z,101668.44
2022-08-08T02:55:19.787Z,101668.41
2022-08-08T02:58:05.490Z,101673.69
2022-08-08T03:00:55.582Z,101667.56
2022-08-08T03:05:00.795Z,101664.03
2022-08-08T03:06:53.267Z,101668.41
2022-08-08T03:09:46.186Z,101667.56
2022-08-08T03:12:35.987Z,101663.13
2022-08-08T03:15:56.683Z,101663.13
2022-08-08T03:18:09.272Z,101666.66
2022-08-08T03:20:51.935Z,101668.41
2022-08-08T03:23:20.292Z,101665.75
2022-08-08T03:25:50.085Z,101664.00
2022-08-08T03:28:21.656Z,101662.28
2022-08-08T03:31:07.597Z,101660.53
2022-08-08T03:33:55.191Z,101660.50
2022-08-08T03:36:27.544Z,101666.66
2022-08-08T03:39:07.636Z,101666.69
2022-08-08T03:42:12.493Z,101664.91
2022-08-08T03:44:33.437Z,101667.56
2022-08-08T03:47:00.317Z,101663.16
2022-08-08T03:49:58.814Z,101670.19
2022-08-08T03:52:27.659Z,101664.91
2022-08-08T03:55:02.684Z,101669.31
2022-08-08T03:58:30.933Z,101672.81
2022-08-08T04:00:26.521Z,101676.34
2022-08-08T04:03:02.464Z,101679.84
2022-08-08T04:05:33.156Z,101682.53
2022-08-08T04:08:05.281Z,101692.16
2022-08-08T04:10:33.770Z,101686.00
2022-08-08T04:13:17.392Z,101693.06
2022-08-08T04:15:54.950Z,101693.91
2022-08-08T04:18:30.375Z,101696.56
2022-08-08T04:20:57.856Z,101689.56
2022-08-08T04:23:24.582Z,101692.19
2022-08-08T04:26:04.082Z,101686.03
2022-08-08T04:28:40.539Z,101689.56
2022-08-08T04:31:09.310Z,101691.31
2022-08-08T04:33:41.612Z,101693.06
2022-08-08T04:36:08.896Z,101694.84
2022-08-08T04:38:35.650Z,101693.06
2022-08-08T04:41:02.382Z,101701.88
2022-08-08T04:43:32.342Z,101701.88
2022-08-08T04:46:14.724Z,101709.78
2022-08-08T04:48:41.692Z,101715.06
2022-08-08T04:51:09.264Z,101715.91
2022-08-08T04:54:36.492Z,101707.09
2022-08-08T04:56:22.741Z,101717.69
2022-08-08T04:58:50.670Z,101718.56
2022-08-08T05:01:18.143Z,101713.31
2022-08-08T05:04:09.669Z,101711.53
2022-08-08T05:06:31.528Z,101713.28
2022-08-08T05:09:02.814Z,101718.56
2022-08-08T05:11:39.634Z,101713.16
2022-08-08T05:14:08.827Z,101712.25
2022-08-08T05:16:51.927Z,101713.09
2022-08-08T05:20:12.406Z,101715.78
2022-08-08T05:22:11.118Z,101718.47
2022-08-08T05:24:38.676Z,101709.63
2022-08-08T05:27:05.971Z,101717.53
2022-08-08T05:29:35.716Z,101713.09
2022-08-08T05:32:06.109Z,101723.59
2022-08-08T05:34:41.977Z,101714.63
2022-08-08T05:37:17.031Z,101712.69
2022-08-08T05:39:54.233Z,101710.81
2022-08-08T05:42:49.083Z,101718.63
2022-08-08T05:45:25.149Z,101713.06
2022-08-08T05:48:08.991Z,101717.13
2022-08-08T05:50:36.902Z,101723.88
2022-08-08T05:53:54.441Z,101719.34
2022-08-08T05:56:11.102Z,101723.75
2022-08-08T05:58:53.650Z,101725.44
2022-08-08T06:01:55.534Z,101720.47
2022-08-08T06:04:22.429Z,101726.13
2022-08-08T06:06:52.688Z,101729.28
2022-08-08T06:09:59.079Z,101733.66
2022-08-08T06:12:09.948Z,101719.91
2022-08-08T06:14:47.691Z,101726.09
2022-08-08T06:17:19.559Z,101730.69
2022-08-08T06:19:47.238Z,101728.66
2022-08-08T06:25:00.595Z,101723.06
2022-08-08T06:28:00.696Z,101718.91
2022-08-08T06:30:30.366Z,101724.63
2022-08-08T06:33:01.182Z,101726.34
2022-08-08T06:36:06.116Z,101727.63
2022-08-08T06:38:20.885Z,101722.69
2022-08-08T06:41:01.360Z,101727.09
2022-08-08T06:43:33.735Z,101732.66
2022-08-08T06:46:02.555Z,101728.44
2022-08-08T06:48:29.879Z,101734.38
2022-08-08T06:50:58.235Z,101738.53
2022-08-08T06:53:26.125Z,101733.81
2022-08-08T06:56:08.662Z,101736.47
2022-08-08T06:58:35.895Z,101744.34
2022-08-08T07:01:52.588Z,101743.84
2022-08-08T07:04:37.412Z,101737.47
2022-08-08T07:06:44.960Z,101738.66
2022-08-08T07:09:21.095Z,101736.50
2022-08-08T07:11:52.439Z,101736.34
2022-08-08T07:14:27.934Z,101736.69
2022-08-08T07:17:09.151Z,101736.41
2022-08-08T07:19:49.752Z,101737.00
2022-08-08T07:22:23.279Z,101739.19
2022-08-08T07:24:54.315Z,101743.22
2022-08-08T07:27:35.111Z,101738.59
2022-08-08T07:30:16.646Z,101753.91
2022-08-08T07:32:47.613Z,101750.50
2022-08-08T07:35:15.466Z,101740.81
2022-08-08T07:38:04.747Z,101750.19
2022-08-08T07:40:33.970Z,101749.09
2022-08-08T07:43:04.133Z,101756.25
2022-08-08T07:46:04.935Z,101755.88
2022-08-08T07:48:22.471Z,101760.50
2022-08-08T07:50:52.491Z,101764.66
2022-08-08T07:54:01.777Z,101766.25
2022-08-08T07:56:37.423Z,101769.31
2022-08-08T07:59:10.792Z,101770.53
2022-08-08T08:02:35.998Z,101772.06
2022-08-08T08:04:33.326Z,101780.63
2022-08-08T08:07:08.788Z,101772.34
2022-08-08T08:09:41.310Z,101773.22
2022-08-08T08:12:31.737Z,101770.28
2022-08-08T08:15:02.973Z,101773.59
2022-08-08T08:17:44.993Z,101768.06
2022-08-08T08:20:16.379Z,101771.06
2022-08-08T08:22:43.401Z,101764.28
2022-08-08T08:25:10.154Z,101767.91
2022-08-08T08:27:37.029Z,101759.91
2022-08-08T08:30:05.028Z,101764.44
2022-08-08T08:32:36.555Z,101767.56
2022-08-08T08:35:08.152Z,101760.69
2022-08-08T08:37:52.983Z,101771.97
2022-08-08T08:40:22.053Z,101761.03
2022-08-08T08:42:49.711Z,101763.47
2022-08-08T08:45:22.613Z,101773.88
2022-08-08T08:47:54.886Z,101768.56
2022-08-08T08:50:33.314Z,101768.75
2022-08-08T08:53:27.833Z,101773.28
2022-08-08T08:56:02.100Z,101773.53
2022-08-08T08:58:39.608Z,101768.19
2022-08-08T09:01:10.331Z,101774.34
2022-08-08T09:03:46.853Z,101771.56
2022-08-08T09:06:34.236Z,101779.28
2022-08-08T09:09:25.849Z,101782.78
2022-08-08T09:12:02.080Z,101771.72
2022-08-08T09:14:33.134Z,101770.75
2022-08-08T09:17:07.080Z,101775.06
2022-08-08T09:21:58.843Z,101759.09
2022-08-08T09:22:27.160Z,101760.41
2022-08-08T09:24:56.018Z,101762.81
2022-08-08T09:27:56.919Z,101752.63
2022-08-08T09:30:14.680Z,101748.25
2022-08-08T09:32:50.380Z,101757.31
2022-08-08T09:35:37.400Z,101758.69
2022-08-08T09:38:05.878Z,101753.81
2022-08-08T09:40:45.595Z,101747.28
2022-08-08T09:43:40.688Z,101754.00
2022-08-08T09:46:25.632Z,101746.38
2022-08-08T09:49:18.681Z,101745.38
2022-08-08T09:52:07.001Z,101748.25
2022-08-08T09:54:44.064Z,101744.28
2022-08-08T09:57:17.304Z,101743.91
2022-08-08T10:00:01.175Z,101735.81
2022-08-08T10:02:36.657Z,101744.13
2022-08-08T10:05:14.374Z,101740.69
2022-08-08T10:08:01.296Z,101743.31
2022-08-08T10:10:33.706Z,101732.69
2022-08-08T10:13:32.087Z,101726.41
2022-08-08T10:16:03.437Z,101731.69
2022-08-08T10:18:34.733Z,101736.09
2022-08-08T10:21:23.153Z,101733.66
2022-08-08T10:23:58.911Z,101742.19
2022-08-08T10:26:52.416Z,101741.06
2022-08-08T10:29:23.385Z,101740.75
2022-08-08T10:32:15.538Z,101735.94
2022-08-08T10:34:57.089Z,101733.28
2022-08-08T10:37:30.393Z,101730.19
2022-08-08T10:39:58.789Z,101721.25
2022-08-08T10:42:35.641Z,101724.47
2022-08-08T10:45:07.953Z,101717.94
2022-08-08T10:47:43.671Z,101712.03
2022-08-08T10:50:15.528Z,101715.38
2022-08-08T10:52:43.192Z,101713.94
2022-08-08T10:55:11.040Z,101718.19
2022-08-08T10:57:50.421Z,101718.97
2022-08-08T11:00:25.658Z,101715.16
2022-08-08T11:02:54.032Z,101718.50
2022-08-08T11:05:22.952Z,101699.97
2022-08-08T11:08:38.686Z,101709.06
2022-08-08T11:10:42.614Z,101708.72
2022-08-08T11:13:28.853Z,101706.53
2022-08-08T11:16:01.349Z,101697.66
2022-08-08T11:18:38.522Z,101706.56
2022-08-08T11:21:08.793Z,101703.34
2022-08-08T11:23:36.612Z,101709.09
2022-08-08T11:26:05.312Z,101702.00
2022-08-08T11:28:38.838Z,101697.94
2022-08-08T11:31:09.668Z,101692.78
2022-08-08T11:33:52.613Z,101698.44
2022-08-08T11:36:29.322Z,101705.34
2022-08-08T11:38:56.759Z,101695.84
2022-08-08T11:41:28.146Z,101694.06
2022-08-08T11:44:00.530Z,101700.69
2022-08-08T11:46:31.748Z,101696.81
2022-08-08T11:49:04.355Z,101692.81
2022-08-08T11:51:38.840Z,101697.56
2022-08-08T11:54:27.363Z,101684.56
2022-08-08T11:57:14.022Z,101687.03
2022-08-08T12:00:02.598Z,101690.44
2022-08-08T12:02:34.100Z,101693.97
2022-08-08T12:05:12.203Z,101700.28
2022-08-08T12:07:54.172Z,101695.59
2022-08-08T12:10:25.568Z,101689.03
2022-08-08T12:13:06.909Z,101699.72
2022-08-08T12:15:42.703Z,101695.47
2022-08-08T12:18:24.548Z,101701.59
2022-08-08T12:20:54.738Z,101687.13
2022-08-08T12:23:40.101Z,101690.16
2022-08-08T12:26:17.253Z,101693.47
2022-08-08T12:28:57.298Z,101690.97
2022-08-08T12:31:39.459Z,101684.47
2022-08-08T12:34:36.255Z,101689.03
2022-08-08T12:37:08.805Z,101680.63
2022-08-08T12:40:00.129Z,101687.66
2022-08-08T12:42:26.472Z,101684.03
2022-08-08T12:45:11.584Z,101686.38
2022-08-08T12:48:10.179Z,101673.22
2022-08-08T12:50:54.919Z,101672.06
2022-08-08T12:53:35.142Z,101671.78
2022-08-08T12:56:19.333Z,101667.53
2022-08-08T12:58:51.753Z,101670.25
2022-08-08T13:01:24.354Z,101670.63
2022-08-08T13:04:12.577Z,101663.53
2022-08-08T13:06:53.208Z,101666.84
2022-08-08T13:10:00.666Z,101664.13
2022-08-08T13:12:30.301Z,101669.47
2022-08-08T13:14:59.744Z,101665.00
2022-08-08T13:18:01.508Z,101663.47
2022-08-08T13:20:19.850Z,101668.28
2022-08-08T13:22:46.868Z,101660.31
2022-08-08T13:25:21.996Z,101665.34
2022-08-08T13:27:56.473Z,101664.16
2022-08-08T13:30:28.606Z,101671.09
2022-08-08T13:32:57.642Z,101666.97
2022-08-08T13:35:38.538Z,101660.19
2022-08-08T13:38:08.191Z,101661.50
2022-08-08T13:40:40.865Z,101671.28
2022-08-08T13:43:08.356Z,101670.47
2022-08-08T13:45:36.934Z,101666.06
2022-08-08T13:48:12.067Z,101660.25
2022-08-08T13:50:50.843Z,101664.19
2022-08-08T13:53:34.135Z,101665.44
2022-08-08T13:56:07.003Z,101664.47
2022-08-08T13:58:56.327Z,101673.09
2022-08-08T14:01:52.844Z,101671.34
2022-08-08T14:04:26.072Z,101664.75
2022-08-08T14:07:02.761Z,101666.28
2022-08-08T14:10:04.807Z,101667.78
2022-08-08T14:12:26.039Z,101664.53
2022-08-08T14:14:55.087Z,101670.44
2022-08-08T14:17:57.781Z,101672.25
2022-08-08T14:20:15.068Z,101662.50
2022-08-08T14:23:21.153Z,101664.13
2022-08-08T14:26:10.392Z,101673.69
2022-08-08T14:28:40.628Z,101664.44
2022-08-08T14:31:09.712Z,101662.22
2022-08-08T14:33:36.865Z,101665.03
2022-08-08T14:36:06.291Z,101667.47
2022-08-08T14:38:52.136Z,101663.91
2022-08-08T14:41:53.471Z,101665.28
2022-08-08T14:44:13.303Z,101668.31
2022-08-08T14:47:01.039Z,101665.34
2022-08-08T14:49:37.955Z,101669.91
2022-08-08T14:52:22.606Z,101670.16
2022-08-08T14:54:49.934Z,101665.34
2022-08-08T14:57:20.667Z,101665.94
2022-08-08T15:00:12.660Z,101668.94
2022-08-08T15:02:58.596Z,101664.34
2022-08-08T15:05:42.759Z,101662.03
2022-08-08T15:08:22.064Z,101663.47
2022-08-08T15:10:59.511Z,101659.88
2022-08-08T15:13:39.839Z,101655.69
2022-08-08T15:16:12.043Z,101648.41
2022-08-08T15:18:49.941Z,101652.66
2022-08-08T15:21:18.138Z,101654.75
2022-08-08T15:23:52.524Z,101655.47
2022-08-08T15:26:25.859Z,101657.38
2022-08-08T15:28:55.720Z,101657.91
2022-08-08T15:31:55.881Z,101659.34
2022-08-08T15:34:18.337Z,101658.63
2022-08-08T15:37:02.388Z,101653.38
2022-08-08T15:39:38.300Z,101654.25
2022-08-08T15:42:10.151Z,101656.50
2022-08-08T15:44:37.746Z,101663.94
2022-08-08T15:47:07.188Z,101651.75
2022-08-08T15:49:44.475Z,101666.19
2022-08-08T15:52:20.649Z,101659.03
2022-08-08T15:54:51.399Z,101665.38
2022-08-08T15:57:18.994Z,101659.94
2022-08-08T16:00:06.746Z,101671.63
2022-08-08T16:02:33.022Z,101665.91
2022-08-08T16:05:00.546Z,101666.00
2022-08-08T16:07:50.883Z,101670.47
2022-08-08T16:13:14.030Z,101662.34
2022-08-08T16:13:30.478Z,101666.38
2022-08-08T16:16:16.409Z,101665.00
2022-08-08T16:18:57.401Z,101664.25
2022-08-08T16:21:27.591Z,101660.75
2022-08-08T16:23:56.137Z,101660.44
2022-08-08T16:26:34.702Z,101660.28
2022-08-08T16:29:07.863Z,101662.41
2022-08-08T16:31:41.833Z,101650.25
2022-08-08T16:34:10.008Z,101667.59
2022-08-08T16:36:38.859Z,101662.50
2022-08-08T16:39:10.014Z,101666.69
2022-08-08T16:41:54.346Z,101658.56
2022-08-08T16:44:33.692Z,101669.09
2022-08-08T16:47:39.986Z,101668.75
2022-08-08T16:50:13.207Z,101669.03
2022-08-08T16:55:01.178Z,101675.84
2022-08-08T16:55:52.855Z,101683.19
2022-08-08T16:58:20.714Z,101681.72
2022-08-08T17:00:48.738Z,101691.72
2022-08-08T17:03:16.532Z,101692.47
2022-08-08T17:05:53.457Z,101695.78
2022-08-08T17:08:20.518Z,101693.28
2022-08-08T17:10:57.608Z,101688.44
2022-08-08T17:13:27.597Z,101682.81
2022-08-08T17:16:15.340Z,101693.50
2022-08-08T17:18:43.219Z,101687.59
2022-08-08T17:21:12.671Z,101686.22
2022-08-08T17:23:58.096Z,101691.88
2022-08-08T17:26:28.754Z,101695.59
2022-08-08T17:28:56.202Z,101705.09
2022-08-08T17:31:45.655Z,101698.28
2022-08-08T17:34:53.906Z,101700.75
2022-08-08T17:37:03.460Z,101695.44
2022-08-08T17:40:03.704Z,101702.13
2022-08-08T17:42:20.562Z,101696.56
2022-08-08T17:44:49.011Z,101706.91
2022-08-08T17:47:24.001Z,101706.47
2022-08-08T17:50:00.996Z,101712.66
2022-08-08T17:52:33.435Z,101710.97
2022-08-08T17:55:05.319Z,101718.06
2022-08-08T17:57:35.230Z,101713.16
2022-08-08T18:00:13.389Z,101718.91
2022-08-08T18:02:52.631Z,101714.81
2022-08-08T18:05:48.555Z,101718.13
2022-08-08T18:08:37.551Z,101727.50
2022-08-08T18:11:15.301Z,101731.69
2022-08-08T18:13:45.281Z,101729.06
2022-08-08T18:16:12.827Z,101737.78
2022-08-08T18:18:53.235Z,101739.25
2022-08-08T18:21:34.926Z,101738.78
2022-08-08T18:24:17.304Z,101735.84
2022-08-08T18:26:46.608Z,101747.97
2022-08-08T18:29:27.281Z,101759.53
2022-08-08T18:31:59.693Z,101749.72
2022-08-08T18:34:27.559Z,101757.53
2022-08-08T18:36:55.676Z,101752.75
2022-08-08T18:39:27.848Z,101755.94
2022-08-08T18:42:03.784Z,101762.00
2022-08-08T18:44:33.079Z,101773.34
2022-08-08T18:47:02.345Z,101774.66
2022-08-08T18:49:40.987Z,101775.06
2022-08-08T18:52:22.299Z,101774.84
2022-08-08T18:55:00.074Z,101776.91
2022-08-08T18:57:31.505Z,101786.59
2022-08-08T19:00:05.040Z,101788.78
2022-08-08T19:02:36.266Z,101790.97
2022-08-08T19:05:02.899Z,101795.53
2022-08-08T19:07:33.540Z,101804.44
2022-08-08T19:10:13.608Z,101804.53
2022-08-08T19:12:44.351Z,101815.63
2022-08-08T19:15:11.283Z,101811.03
2022-08-08T19:17:47.806Z,101813.13
2022-08-08T19:20:25.399Z,101821.47
2022-08-08T19:22:53.160Z,101821.91
2022-08-08T19:26:01.955Z,101821.88
2022-08-08T19:28:17.700Z,101830.00
2022-08-08T19:30:51.494Z,101827.31
2022-08-08T19:33:52.349Z,101827.47
2022-08-08T19:36:27.487Z,101830.28
2022-08-08T19:38:56.426Z,101835.66
2022-08-08T19:41:33.565Z,101837.50
2022-08-08T19:44:13.297Z,101835.91
2022-08-08T19:46:50.087Z,101839.38
2022-08-08T19:49:16.952Z,101838.78
2022-08-08T19:51:45.423Z,101841.34
2022-08-08T19:54:12.513Z,101846.75
2022-08-08T19:56:41.361Z,101854.19
2022-08-08T19:59:12.830Z,101845.22
2022-08-08T20:02:01.866Z,101846.34
2022-08-08T20:04:27.874Z,101846.56
2022-08-08T20:06:56.864Z,101851.91
2022-08-08T20:09:24.608Z,101848.34
2022-08-08T20:11:52.786Z,101855.56
2022-08-08T20:14:34.871Z,101861.91
2022-08-08T20:17:07.062Z,101862.84
2022-08-08T20:19:42.500Z,101861.03
2022-08-08T20:22:21.045Z,101862.78
2022-08-08T20:24:57.379Z,101867.38
2022-08-08T20:27:27.365Z,101864.59
2022-08-08T20:30:12.120Z,101872.63
2022-08-08T20:32:59.012Z,101865.63
2022-08-08T20:35:32.808Z,101869.06
2022-08-08T20:38:14.804Z,101870.06
2022-08-08T20:40:41.830Z,101873.56
2022-08-08T20:43:13.312Z,101868.19
2022-08-08T20:45:57.574Z,101875.63
2022-08-08T20:48:30.081Z,101874.75
2022-08-08T20:50:56.756Z,101873.00
2022-08-08T20:53:58.167Z,101874.81
2022-08-08T20:56:10.478Z,101873.19
2022-08-08T20:58:44.400Z,101873.31
2022-08-08T21:01:19.513Z,101868.84
2022-08-08T21:03:55.792Z,101866.25
2022-08-08T21:06:51.937Z,101863.56
2022-08-08T21:09:16.026Z,101870.09
2022-08-08T21:11:51.816Z,101869.41
2022-08-08T21:14:30.527Z,101870.28
2022-08-08T21:17:06.375Z,101871.81
2022-08-08T21:19:46.083Z,101872.75
2022-08-08T21:22:15.577Z,101868.53
2022-08-08T21:24:52.775Z,101868.28
2022-08-08T21:28:06.274Z,101870.22
2022-08-08T21:30:19.184Z,101870.09
2022-08-08T21:32:50.972Z,101863.88
2022-08-08T21:36:17.033Z,101879.28
2022-08-08T21:38:12.044Z,101880.28
2022-08-08T21:40:55.983Z,101889.34
2022-08-08T21:43:34.144Z,101886.88
2022-08-08T21:48:05.751Z,101882.59
2022-08-08T21:48:54.558Z,101887.88
2022-08-08T21:54:31.997Z,101892.41
2022-08-08T21:54:36.072Z,101889.03
2022-08-08T21:57:03.040Z,101888.91
2022-08-08T22:00:02.257Z,101891.69
2022-08-08T22:02:19.381Z,101889.16
2022-08-08T22:04:56.057Z,101896.31
2022-08-08T22:07:34.608Z,101890.03
2022-08-08T22:10:09.607Z,101890.78
2022-08-08T22:12:37.701Z,101898.00
2022-08-08T22:15:06.111Z,101899.91
2022-08-08T22:17:41.467Z,101897.31
2022-08-08T22:20:23.573Z,101898.03
2022-08-08T22:22:52.421Z,101892.94
2022-08-08T22:25:25.755Z,101891.94
2022-08-08T22:28:02.860Z,101889.34
2022-08-08T22:30:50.909Z,101890.25
2022-08-08T22:34:11.164Z,101891.19
2022-08-08T22:36:12.472Z,101893.56
2022-08-08T22:38:48.516Z,101894.63
2022-08-08T22:41:21.875Z,101897.06
2022-08-08T22:44:05.442Z,101896.31
2022-08-08T22:46:39.658Z,101893.56
2022-08-08T22:49:09.380Z,101899.09
2022-08-08T22:51:42.750Z,101900.84
2022-08-08T22:54:30.438Z,101899.16
2022-08-08T22:57:00.446Z,101893.81
2022-08-08T22:59:35.967Z,101900.78
2022-08-08T23:02:14.112Z,101909.03
2022-08-08T23:05:01.972Z,101909.03
2022-08-08T23:07:51.809Z,101908.16
2022-08-08T23:10:21.312Z,101908.28
2022-08-08T23:12:48.870Z,101906.50
2022-08-08T23:16:38.280Z,101908.34
2022-08-08T23:18:07.777Z,101910.25
2022-08-08T23:20:38.621Z,101904.06
2022-08-08T23:23:05.423Z,101910.31
2022-08-08T23:25:45.063Z,101910.31
2022-08-08T23:28:15.440Z,101908.53
2022-08-08T23:30:44.254Z,101909.44
2022-08-08T23:33:19.015Z,101905.03
2022-08-08T23:36:06.978Z,101911.31
2022-08-08T23:38:36.334Z,101905.94
2022-08-08T23:41:17.476Z,101902.47
2022-08-08T23:43:56.541Z,101895.41
2022-08-08T23:49:03.597Z,101902.66
2022-08-08T23:49:18.807Z,101895.63
2022-08-08T23:52:04.884Z,101899.38
2022-08-08T23:54:43.053Z,101896.78
2022-08-08T23:57:26.760Z,101894.09
